Time;durP1;ratioP1;P1;durP2;ratioP2;P2;SDS_P1;SDS_P2;PMS_P1;PMS_P2;Temp;Humidity;BMP_temperature;BMP_pressure;BME280_temperature;BME280_humidity;BME280_pressure;Samples;Min_cycle;Max_cycle;Signal;HPM_P1;HPM_P2
2023/01/12 00:04:38;;;;;;;6.93;1.88;;;9.30;98.00;;;;;;20472839;28;20128;-43
2023/01/12 00:14:39;;;;;;;4.25;1.92;;;9.30;99.90;;;;;;20475259;28;20428;-43
2023/01/12 00:24:46;;;;;;;3.70;1.85;;;9.30;99.90;;;;;;20484242;28;20038;-44
2023/01/12 00:34:47;;;;;;;;;;;9.30;99.90;;;;;;20490341;28;20407;-41
2023/01/12 00:55:08;;;;;;;20.40;3.95;;;9.30;99.90;;;;;;20490200;28;20039;-40
2023/01/12 01:05:09;;;;;;;9.98;2.60;;;9.30;99.90;;;;;;20479597;28;20071;-41
2023/01/12 01:15:10;;;;;;;11.82;2.72;;;9.30;99.90;;;;;;20474441;28;20106;-43
2023/01/12 01:25:11;;;;;;;13.65;4.00;;;9.20;99.90;;;;;;20476203;28;20086;-41
2023/01/12 01:35:12;;;;;;;13.98;3.58;;;9.20;99.90;;;;;;20475033;28;20063;-41
2023/01/12 01:45:15;;;;;;;15.75;3.38;;;9.10;99.90;;;;;;20479534;28;20062;-40
2023/01/12 01:55:22;;;;;;;8.82;2.28;;;9.10;99.90;;;;;;20485598;28;20038;-40
2023/01/12 02:05:26;;;;;;;7.28;3.22;;;9.20;99.90;;;;;;20483844;28;20350;-40
2023/01/12 02:26:38;;;;;;;9.48;1.98;;;9.10;99.90;;;;;;20473963;28;20882;-40
2023/01/12 02:37:15;;;;;;;4.82;1.75;;;9.10;99.90;;;;;;20470726;28;21765;-40
2023/01/12 02:47:31;;;;;;;8.82;1.55;;;9.00;99.90;;;;;;20467234;28;20148;-40
2023/01/12 02:57:35;;;;;;;3.40;1.77;;;9.00;99.90;;;;;;20468660;28;21993;-39
2023/01/12 03:07:45;;;;;;;7.00;2.50;;;9.00;99.90;;;;;;20460459;28;20074;-40
2023/01/12 03:18:04;;;;;;;7.78;2.13;;;9.10;99.90;;;;;;20462170;28;20384;-40
2023/01/12 03:28:07;;;;;;;3.72;1.40;;;9.10;99.90;;;;;;20470253;28;20477;-40
2023/01/12 03:38:26;;;;;;;5.05;1.65;;;9.10;99.90;;;;;;20467789;28;20093;-39
2023/01/12 03:48:41;;;;;;;4.10;1.55;;;9.00;99.90;;;;;;20461020;28;20848;-40
2023/01/12 03:58:43;;;;;;;5.88;1.67;;;8.90;99.90;;;;;;20464685;28;20537;-40
2023/01/12 04:08:44;;;;;;;2.75;0.95;;;8.80;99.90;;;;;;20463267;28;20063;-40
2023/01/12 04:18:45;;;;;;;1.88;0.73;;;8.80;99.90;;;;;;20461686;28;20086;-40
2023/01/12 04:28:46;;;;;;;5.30;1.83;;;8.80;99.90;;;;;;20461464;28;20093;-40
2023/01/12 04:38:47;;;;;;;9.63;1.58;;;8.80;99.90;;;;;;20463303;28;20058;-40
2023/01/12 04:48:48;;;;;;;7.88;1.60;;;8.80;99.90;;;;;;20463402;28;20538;-40
2023/01/12 04:58:54;;;;;;;2.90;0.40;;;8.90;99.90;;;;;;20444603;28;20059;-40
2023/01/12 05:19:15;;;;;;;2.17;0.80;;;9.00;99.90;;;;;;20476673;28;20412;-40
2023/01/12 05:29:16;;;;;;;1.10;0.40;;;9.10;99.90;;;;;;20474596;28;20043;-40
2023/01/12 05:39:18;;;;;;;5.78;0.60;;;9.00;99.90;;;;;;20476134;28;20336;-40
2023/01/12 05:49:19;;;;;;;1.95;0.30;;;9.00;99.90;;;;;;20474116;28;20094;-40
2023/01/12 05:59:20;;;;;;;1.52;0.57;;;9.10;99.90;;;;;;20475021;28;20043;-40
2023/01/12 06:09:21;;;;;;;0.55;0.13;;;9.10;99.90;;;;;;20468276;28;20130;-40
2023/01/12 06:19:22;;;;;;;0.60;0.40;;;9.10;99.90;;;;;;20461395;28;20498;-40
2023/01/12 06:29:23;;;;;;;1.70;0.88;;;9.30;99.90;;;;;;20469339;28;20039;-40
2023/01/12 06:39:24;;;;;;;1.98;0.65;;;9.40;99.90;;;;;;20466803;28;20211;-40
2023/01/12 06:49:25;;;;;;;4.43;0.90;;;9.90;99.90;;;;;;20463770;28;20170;-40
2023/01/12 06:59:26;;;;;;;4.70;2.22;;;10.30;99.90;;;;;;20456534;28;20075;-40
2023/01/12 07:09:27;;;;;;;12.65;2.70;;;10.40;99.90;;;;;;20467116;28;20098;-40
2023/01/12 07:19:28;;;;;;;4.80;1.98;;;10.50;99.90;;;;;;20461285;28;20047;-41
2023/01/12 07:29:29;;;;;;;5.80;1.67;;;10.60;99.90;;;;;;20473197;28;20050;-41
2023/01/12 07:39:30;;;;;;;6.32;1.52;;;10.80;99.90;;;;;;20471760;28;20043;-41
2023/01/12 07:49:31;;;;;;;4.78;1.50;;;10.90;99.90;;;;;;20460087;28;20055;-41
2023/01/12 07:59:32;;;;;;;7.90;1.77;;;11.00;99.90;;;;;;20455254;28;20062;-41
2023/01/12 08:09:33;;;;;;;13.13;2.42;;;11.10;99.90;;;;;;20463030;28;20466;-41
2023/01/12 08:19:58;;;;;;;7.30;2.30;;;11.20;99.90;;;;;;20460346;28;20504;-41
2023/01/12 08:30:01;;;;;;;7.95;2.25;;;11.30;99.90;;;;;;20461953;28;20882;-41
2023/01/12 08:40:04;;;;;;;9.52;2.83;;;11.30;99.90;;;;;;20449002;28;20592;-41
2023/01/12 08:50:06;;;;;;;10.02;2.65;;;11.40;99.90;;;;;;20465016;28;20188;-42
2023/01/12 09:00:08;;;;;;;5.22;1.33;;;11.40;99.90;;;;;;20428360;28;20190;-42
2023/01/12 09:10:09;;;;;;;6.97;2.50;;;11.60;99.90;;;;;;20464905;28;20227;-42
2023/01/12 09:20:10;;;;;;;12.48;3.15;;;11.50;99.90;;;;;;20474457;28;20633;-41
2023/01/12 09:30:11;;;;;;;5.32;2.40;;;11.40;99.90;;;;;;20455812;28;20136;-42
2023/01/12 09:40:14;;;;;;;4.00;2.22;;;11.60;99.90;;;;;;20429630;28;20117;-42
2023/01/12 09:50:19;;;;;;;11.48;3.28;;;11.60;99.90;;;;;;20445579;28;20106;-42
2023/01/12 10:00:20;;;;;;;13.25;3.47;;;11.70;99.90;;;;;;20445039;28;20035;-42
2023/01/12 10:10:22;;;;;;;6.55;2.55;;;11.90;99.90;;;;;;20454943;28;20171;-42
2023/01/12 10:20:36;;;;;;;9.32;2.20;;;11.80;99.90;;;;;;20464272;28;21063;-42
2023/01/12 10:30:38;;;;;;;26.80;2.10;;;11.70;99.90;;;;;;20478710;28;20165;-42
2023/01/12 10:40:39;;;;;;;8.43;1.67;;;11.60;99.90;;;;;;20459482;28;20573;-42
2023/01/12 10:50:41;;;;;;;5.20;1.88;;;11.60;99.90;;;;;;20440947;28;20133;-42
2023/01/12 11:00:47;;;;;;;4.80;1.92;;;11.40;99.90;;;;;;20479210;28;20570;-42
2023/01/12 11:10:48;;;;;;;5.72;1.80;;;11.40;99.90;;;;;;20477815;28;20105;-42
2023/01/12 11:21:01;;;;;;;9.98;3.88;;;11.40;99.90;;;;;;20481922;28;20027;-42
2023/01/12 11:31:18;;;;;;;12.43;2.47;;;11.40;99.90;;;;;;20428325;28;20082;-42
2023/01/12 11:52:15;;;;;;;11.18;2.75;;;11.40;99.90;;;;;;20408729;28;22298;-42
2023/01/12 12:02:36;;;;;;;6.07;1.73;;;11.30;99.90;;;;;;20467403;28;20137;-41
2023/01/12 12:12:42;;;;;;;8.98;3.08;;;11.30;99.90;;;;;;20463954;28;20439;-43
2023/01/12 12:22:55;;;;;;;6.22;1.85;;;11.20;99.90;;;;;;20462813;28;20082;-41
2023/01/12 12:32:56;;;;;;;5.90;2.53;;;11.20;99.90;;;;;;20467491;28;20083;-41
2023/01/12 12:53:35;;;;;;;3.05;0.90;;;11.10;99.90;;;;;;20459887;28;20960;-41
2023/01/12 13:03:39;;;;;;;4.13;1.48;;;11.10;99.90;;;;;;20455325;28;20086;-40
2023/01/12 13:13:58;;;;;;;7.13;1.33;;;11.10;99.90;;;;;;20453627;28;20138;-40
2023/01/12 13:24:15;;;;;;;2.25;0.57;;;11.00;99.90;;;;;;20470222;28;20102;-40
2023/01/12 13:34:28;;;;;;;0.37;0.20;;;11.00;99.90;;;;;;20485247;28;20455;-41
2023/01/12 13:44:33;;;;;;;1.23;0.57;;;11.00;99.90;;;;;;20519437;28;20942;-40
2023/01/12 13:54:34;;;;;;;0.80;0.20;;;11.00;99.90;;;;;;20484276;28;20035;-40
2023/01/12 14:04:57;;;;;;;0.77;0.35;;;11.00;99.90;;;;;;20474841;28;20063;-40
2023/01/12 14:25:41;;;;;;;0.52;0.20;;;10.90;99.90;;;;;;20471001;28;21891;-40
2023/01/12 14:35:47;;;;;;;1.20;0.52;;;10.80;99.90;;;;;;20474910;28;20075;-41
2023/01/12 14:56:24;;;;;;;0.73;0.22;;;10.80;99.90;;;;;;20441383;28;20102;-41
2023/01/12 15:06:25;;;;;;;5.82;2.00;;;10.80;99.90;;;;;;20472910;28;22003;-41
2023/01/12 15:26:46;;;;;;;3.05;1.45;;;10.70;99.90;;;;;;20469624;28;20818;-41
2023/01/12 15:36:47;;;;;;;1.27;0.70;;;10.70;99.90;;;;;;20463904;28;20051;-40
2023/01/12 15:46:48;;;;;;;0.60;0.22;;;10.80;99.90;;;;;;20465245;28;20482;-40
2023/01/12 15:56:49;;;;;;;0.88;0.25;;;10.80;99.90;;;;;;20462405;28;20524;-40
2023/01/12 16:06:51;;;;;;;1.65;1.05;;;10.70;99.90;;;;;;20461984;28;20165;-40
2023/01/12 16:16:52;;;;;;;7.05;1.70;;;10.70;99.90;;;;;;20466380;28;20075;-40
2023/01/12 16:26:53;;;;;;;1.52;0.50;;;10.70;99.90;;;;;;20430774;28;20113;-40
2023/01/12 16:36:54;;;;;;;1.08;0.32;;;10.60;99.90;;;;;;20465307;28;20050;-40
2023/01/12 16:46:56;;;;;;;2.30;1.08;;;10.70;99.90;;;;;;20459132;28;20066;-41
2023/01/12 16:56:57;;;;;;;1.67;0.68;;;10.70;99.90;;;;;;20458206;28;20228;-40
2023/01/12 17:06:58;;;;;;;1.25;0.50;;;10.80;99.90;;;;;;20479462;28;20790;-41
2023/01/12 17:17:02;;;;;;;8.93;1.15;;;10.70;99.90;;;;;;20480663;28;20039;-42
2023/01/12 17:27:05;;;;;;;3.92;1.45;;;10.70;99.90;;;;;;20492140;28;20051;-42
2023/01/12 17:37:09;;;;;;;3.17;0.85;;;10.80;99.90;;;;;;20481578;28;20098;-41
2023/01/12 17:47:11;;;;;;;1.75;0.70;;;10.70;99.90;;;;;;20452653;28;20074;-41
2023/01/12 17:57:12;;;;;;;1.23;0.50;;;10.70;99.90;;;;;;20481849;28;20098;-42
2023/01/12 18:07:13;;;;;;;1.38;0.52;;;10.70;99.90;;;;;;20473483;28;20070;-41
2023/01/12 18:17:14;;;;;;;3.00;1.00;;;10.80;99.90;;;;;;20473083;28;20507;-42
2023/01/12 18:27:15;;;;;;;1.90;0.75;;;10.80;99.90;;;;;;20469204;28;20455;-41
2023/01/12 18:37:16;;;;;;;3.28;1.25;;;10.80;99.90;;;;;;20480452;28;20566;-42
2023/01/12 18:57:37;;;;;;;1.45;0.70;;;10.80;99.90;;;;;;20477009;28;20941;-41
2023/01/12 19:07:50;;;;;;;2.38;1.08;;;10.70;99.90;;;;;;20430091;28;20133;-42
2023/01/12 19:17:51;;;;;;;3.78;1.50;;;10.70;99.90;;;;;;20448283;28;20106;-42
2023/01/12 19:38:13;;;;;;;2.42;1.10;;;10.70;99.90;;;;;;20468328;28;20522;-44
2023/01/12 19:48:16;;;;;;;3.20;1.35;;;10.70;99.90;;;;;;20467573;28;20172;-42
2023/01/12 19:58:21;;;;;;;7.95;1.25;;;10.60;99.90;;;;;;20470369;28;20043;-41
2023/01/12 20:08:24;;;;;;;1.80;0.40;;;10.60;99.90;;;;;;20475079;28;20049;-41
2023/01/12 20:18:24;;;;;;;1.73;1.10;;;10.50;99.90;;;;;;20471891;28;20584;-41
2023/01/12 20:28:25;;;;;;;2.72;0.68;;;10.50;99.90;;;;;;20470077;28;20050;-40
2023/01/12 20:38:27;;;;;;;1.70;0.93;;;10.30;99.90;;;;;;20472060;28;20039;-40
2023/01/12 20:48:28;;;;;;;13.23;5.00;;;10.20;99.90;;;;;;20491214;28;20046;-40
2023/01/12 20:58:29;;;;;;;1.40;0.32;;;10.20;99.90;;;;;;20488909;28;20035;-41
2023/01/12 21:08:30;;;;;;;2.90;1.13;;;10.20;99.90;;;;;;20493815;28;20051;-42
2023/01/12 21:18:32;;;;;;;4.50;1.30;;;10.20;99.90;;;;;;20489307;28;20037;-42
2023/01/12 21:28:36;;;;;;;2.47;0.88;;;10.20;99.90;;;;;;20483164;28;20450;-42
2023/01/12 21:38:37;;;;;;;2.42;0.93;;;10.10;99.90;;;;;;20483383;28;20135;-42
2023/01/12 21:48:38;;;;;;;8.20;1.45;;;10.30;99.90;;;;;;20474886;28;20102;-41
2023/01/12 21:58:39;;;;;;;4.40;1.08;;;10.10;99.90;;;;;;20471236;28;20078;-42
2023/01/12 22:08:41;;;;;;;4.70;1.67;;;10.10;91.90;;;;;;20468198;28;20502;-42
2023/01/12 22:18:45;;;;;;;5.28;1.70;;;10.00;93.20;;;;;;20461760;28;20224;-42
2023/01/12 22:28:47;;;;;;;6.47;1.73;;;10.00;96.70;;;;;;20474794;28;20117;-42
2023/01/12 22:38:48;;;;;;;17.40;2.50;;;10.00;97.00;;;;;;20470622;28;20042;-42
2023/01/12 22:48:51;;;;;;;9.10;3.22;;;9.90;93.70;;;;;;20472181;28;20117;-42
2023/01/12 22:58:54;;;;;;;6.28;2.05;;;9.80;88.90;;;;;;20472671;28;20566;-42
2023/01/12 23:08:55;;;;;;;6.82;2.03;;;9.70;88.60;;;;;;20470242;28;20126;-42
2023/01/12 23:18:56;;;;;;;12.73;4.43;;;9.80;92.20;;;;;;20457973;28;20621;-42
2023/01/12 23:28:59;;;;;;;8.38;3.08;;;9.70;95.50;;;;;;20454640;28;20526;-43
2023/01/12 23:39:02;;;;;;;14.02;3.38;;;9.80;96.30;;;;;;20457568;28;20059;-42
2023/01/12 23:49:04;;;;;;;11.05;2.35;;;9.70;87.30;;;;;;20452378;28;20448;-42
2023/01/12 23:59:05;;;;;;;15.32;4.03;;;9.50;68.70;;;;;;20445535;28;20679;-42
